createdAt,value
2022-09-13T16:13:59.908Z,95423.16
2022-09-13T16:16:26.743Z,95427.91
2022-09-13T16:18:53.512Z,95427.44
2022-09-13T16:21:20.197Z,95432.34
2022-09-13T16:23:46.923Z,95440.69
2022-09-13T16:26:13.852Z,95430.72
2022-09-13T16:28:40.531Z,95435.31
2022-09-13T16:31:07.335Z,95439.69
2022-09-13T16:33:34.810Z,95434.44
2022-09-13T16:36:02.546Z,95435.78
2022-09-13T16:38:29.487Z,95434.19
2022-09-13T16:40:56.212Z,95428.06
2022-09-13T16:43:22.920Z,95439.16
2022-09-13T16:45:51.570Z,95428.56
2022-09-13T16:48:18.381Z,95433.53
2022-09-13T16:50:45.264Z,95427.13
2022-09-13T16:53:11.954Z,95430.81
2022-09-13T16:55:38.709Z,95436.84
2022-09-13T16:58:05.430Z,95433.63
2022-09-13T17:00:32.158Z,95435.38
2022-09-13T17:02:59.114Z,95430.34
2022-09-13T17:05:26.065Z,95432.88
2022-09-13T17:07:53.242Z,95434.66
2022-09-13T17:10:20.666Z,95432.63
2022-09-13T17:12:47.385Z,95429.34
2022-09-13T17:15:14.264Z,95426.34
2022-09-13T17:17:40.897Z,95432.84
2022-09-13T17:20:10.498Z,95426.28
2022-09-13T17:22:37.156Z,95420.56
2022-09-13T17:25:07.633Z,95414.34
2022-09-13T17:27:34.921Z,95412.09
2022-09-13T17:30:02.579Z,95414.03
2022-09-13T17:32:29.227Z,95411.31
2022-09-13T17:34:55.924Z,95417.91
2022-09-13T17:37:22.537Z,95415.72
2022-09-13T17:39:49.437Z,95414.00
2022-09-13T17:42:18.132Z,95418.66
2022-09-13T17:44:48.107Z,95419.69
2022-09-13T17:47:15.286Z,95422.22
2022-09-13T17:49:41.976Z,95416.81
2022-09-13T17:52:08.593Z,95419.72
2022-09-13T17:54:35.243Z,95409.25
2022-09-13T17:57:02.037Z,95408.66
2022-09-13T17:59:28.877Z,95406.47
2022-09-13T18:01:58.048Z,95410.38
2022-09-13T18:04:25.064Z,95411.88
2022-09-13T18:06:53.709Z,95413.63
2022-09-13T18:09:21.231Z,95411.31
2022-09-13T18:11:47.925Z,95411.78
2022-09-13T18:14:16.505Z,95409.56
2022-09-13T18:16:44.097Z,95416.84
2022-09-13T18:19:11.678Z,95413.75
2022-09-13T18:21:38.365Z,95405.69
2022-09-13T18:24:05.466Z,95411.22
2022-09-13T18:26:32.741Z,95411.22
2022-09-13T18:29:05.212Z,95415.94
2022-09-13T18:31:33.400Z,95411.44
2022-09-13T18:34:02.872Z,95413.53
2022-09-13T18:36:30.906Z,95409.03
2022-09-13T18:38:58.091Z,95406.97
2022-09-13T18:41:31.378Z,95403.38
2022-09-13T18:43:59.797Z,95406.72
2022-09-13T18:46:30.462Z,95408.78
2022-09-13T18:48:58.330Z,95407.41
2022-09-13T18:51:30.529Z,95408.09
2022-09-13T18:53:59.280Z,95409.56
2022-09-13T18:56:27.136Z,95404.75
2022-09-13T18:58:55.545Z,95411.06
2022-09-13T19:01:25.227Z,95408.59
2022-09-13T19:03:57.487Z,95410.44
2022-09-13T19:06:26.835Z,95407.03
2022-09-13T19:08:55.811Z,95408.03
2022-09-13T19:11:45.145Z,95404.59
2022-09-13T19:14:14.246Z,95407.13
2022-09-13T19:16:41.035Z,95402.25
2022-09-13T19:19:07.769Z,95412.75
2022-09-13T19:21:34.790Z,95406.72
2022-09-13T19:24:06.468Z,95401.91
2022-09-13T19:26:38.351Z,95409.25
2022-09-13T19:29:07.248Z,95406.25
2022-09-13T19:31:36.777Z,95410.16
2022-09-13T19:34:06.256Z,95415.88
2022-09-13T19:36:35.446Z,95419.13
2022-09-13T19:39:02.831Z,95413.69
2022-09-13T19:41:29.883Z,95411.28
2022-09-13T19:44:00.218Z,95409.31
2022-09-13T19:46:31.667Z,95413.81
2022-09-13T19:49:01.102Z,95414.47
2022-09-13T19:51:51.342Z,95413.28
2022-09-13T19:54:19.044Z,95418.22
2022-09-13T19:56:46.060Z,95416.63
2022-09-13T19:59:15.804Z,95414.19
2022-09-13T20:01:44.212Z,95415.47
2022-09-13T20:04:14.531Z,95410.63
2022-09-13T20:06:44.242Z,95406.13
2022-09-13T20:09:12.785Z,95413.84
2022-09-13T20:11:42.588Z,95401.88
2022-09-13T20:14:09.647Z,95402.34
2022-09-13T20:16:38.517Z,95412.31
2022-09-13T20:19:23.656Z,95409.91
2022-09-13T20:21:53.028Z,95414.38
2022-09-13T20:24:20.235Z,95414.38
2022-09-13T20:26:47.846Z,95414.38
2022-09-13T20:29:15.093Z,95418.63
2022-09-13T20:31:41.915Z,95410.69
2022-09-13T20:34:09.196Z,95413.94
2022-09-13T20:36:37.039Z,95404.97
2022-09-13T20:39:06.422Z,95408.41
2022-09-13T20:41:33.271Z,95412.31
2022-09-13T20:44:01.007Z,95400.00
2022-09-13T20:46:29.260Z,95405.06
2022-09-13T20:48:56.099Z,95405.84
2022-09-13T20:51:25.508Z,95405.06
2022-09-13T20:53:56.450Z,95397.13
2022-09-13T20:56:23.647Z,95399.41
2022-09-13T20:58:57.492Z,95398.63
2022-09-13T21:01:25.624Z,95390.91
2022-09-13T21:03:54.096Z,95402.50
2022-09-13T21:06:23.649Z,95396.06
2022-09-13T21:08:50.899Z,95393.81
2022-09-13T21:11:30.120Z,95394.44
2022-09-13T21:14:01.299Z,95390.97
2022-09-13T21:16:31.111Z,95395.47
2022-09-13T21:18:58.093Z,95403.97
2022-09-13T21:21:34.027Z,95395.03
2022-09-13T21:24:04.545Z,95388.50
2022-09-13T21:26:31.833Z,95397.44
2022-09-13T21:28:58.806Z,95392.94
2022-09-13T21:31:28.331Z,95391.38
2022-09-13T21:34:04.111Z,95386.06
2022-09-13T21:36:34.707Z,95391.13
2022-09-13T21:39:02.359Z,95399.84
2022-09-13T21:41:29.108Z,95407.22
2022-09-13T21:43:55.757Z,95397.69
2022-09-13T21:46:27.743Z,95402.13
2022-09-13T21:48:57.441Z,95411.31
2022-09-13T21:51:33.643Z,95412.94
2022-09-13T21:54:02.243Z,95414.56
2022-09-13T21:56:30.571Z,95411.91
2022-09-13T21:59:02.863Z,95415.34
2022-09-13T22:01:32.451Z,95416.97
2022-09-13T22:04:00.822Z,95411.00
2022-09-13T22:06:32.658Z,95409.19
2022-09-13T22:09:05.356Z,95411.13
2022-09-13T22:11:38.728Z,95410.34
2022-09-13T22:14:06.958Z,95404.69
2022-09-13T22:16:37.087Z,95408.13
2022-09-13T22:19:09.531Z,95402.06
2022-09-13T22:21:40.087Z,95412.38
2022-09-13T22:24:10.015Z,95401.81
2022-09-13T22:26:39.737Z,95396.53
2022-09-13T22:29:07.615Z,95401.94
2022-09-13T22:31:36.875Z,95394.44
2022-09-13T22:34:05.101Z,95390.59
2022-09-13T22:36:32.697Z,95387.81
2022-09-13T22:38:59.550Z,95378.88
2022-09-13T22:41:31.590Z,95382.09
2022-09-13T22:43:59.942Z,95379.66
2022-09-13T22:46:32.675Z,95380.69
2022-09-13T22:48:59.684Z,95369.84
2022-09-13T22:51:26.843Z,95382.25
2022-09-13T22:53:54.633Z,95384.47
2022-09-13T22:56:24.349Z,95384.47
2022-09-13T22:59:00.713Z,95383.44
2022-09-13T23:01:29.572Z,95386.06
2022-09-13T23:03:56.879Z,95380.19
2022-09-13T23:06:25.471Z,95379.38
2022-09-13T23:08:54.458Z,95384.88
2022-09-13T23:11:24.266Z,95384.88
2022-09-13T23:13:52.689Z,95394.06
2022-09-13T23:16:25.216Z,95394.88
2022-09-13T23:18:53.050Z,95400.97
2022-09-13T23:21:22.117Z,95393.47
2022-09-13T23:23:49.196Z,95392.09
2022-09-13T23:26:18.807Z,95394.16
2022-09-13T23:28:51.133Z,95382.78
2022-09-13T23:31:20.613Z,95384.00
2022-09-13T23:33:50.014Z,95390.91
2022-09-13T23:36:19.963Z,95384.59
2022-09-13T23:38:49.179Z,95384.59
2022-09-13T23:41:16.491Z,95384.59
2022-09-13T23:43:43.398Z,95390.47
2022-09-13T23:46:10.679Z,95385.19
2022-09-13T23:48:38.064Z,95382.31
2022-09-13T23:51:10.653Z,95377.88
2022-09-13T23:53:38.161Z,95375.22
2022-09-13T23:56:07.554Z,95382.13
2022-09-13T23:58:35.475Z,95373.38
